Noord Nederlandse Zweefvliegclub

NL-0036 · Groningen, Nederland

METAR historie NL-0036 · Noord Nederlandse Zweefvliegclub

Hieronder zie je METAR's van de afgelopen dagen. Kies een jaar om door oudere METAR's te bladeren, vanaf het jaar 2007.

25 mei 2024

Tijd Code Weer Temp. Zicht Plafond Wind METAR/SPECI
10:25
I
15 °C 4,1 km 500 ft 070° 070° 7 kt METAR EHGG 250825Z AUTO 07007KT 040V100 4100 -RA FEW004/// BKN005/// BKN006/// 15/15 Q1016 REDZRA BECMG 8000 BKN012 TEMPO 6000 -SHRA FEW030CB
09:55
I
15 °C 4,4 km 500 ft 070° 070° 7 kt METAR EHGG 250755Z AUTO 07007KT 040V100 4400 +DZRA FEW004/// BKN005/// OVC007/// 15/14 Q1016 BECMG 6000 BKN012 TEMPO -SHRA FEW030CB
09:25
I
15 °C 4,6 km 600 ft 070° 070° 6 kt METAR EHGG 250725Z AUTO 07006KT 030V110 4600 -SHRA FEW003 SCT005 BKN006 FEW015CB 15/14 Q1016 RERA BECMG 6000 RADZ TEMPO BKN006
08:55
I
15 °C 4,1 km 600 ft 080° 080° 6 kt METAR EHGG 250655Z AUTO 08006KT 040V120 4100 RA SCT005 BKN006 FEW015CB 15/14 Q1016 REDZRA TEMPO 3000 SHRA SCT030CB
08:25
I
15 °C 4,4 km 600 ft 070° 070° 7 kt METAR EHGG 250625Z AUTO 07007KT 040V100 4400 BR SCT005 BKN006 FEW015CB 15/14 Q1016 TEMPO 3000 SHRA SCT030CB
07:55
I
15 °C 4,2 km 500 ft 060° 060° 7 kt METAR EHGG 250555Z AUTO 06007KT 030V100 4200 BR FEW004/// BKN005/// OVC006/// 15/14 Q1016 RERA TEMPO 3000 SHRA SCT030CB
07:25
I
15 °C 4,4 km 600 ft 070° 070° 7 kt METAR EHGG 250525Z AUTO 07007KT 030V100 4400 BR SCT005/// BKN006/// OVC007/// 15/14 Q1016 TEMPO 3000 SHRA SCT030CB
06:55
I
15 °C 4,6 km 700 ft 070° 070° 6 kt METAR EHGG 250455Z AUTO 07006KT 040V100 4600 -RA FEW005 BKN007 BKN008 FEW015CB 15/14 Q1016 TEMPO 3000 SHRA SCT030CB
06:25
I
15 °C 4,5 km - 050° 050° 8 kt METAR EHGG 250425Z AUTO 05008KT 4500 BR FEW004 15/14 Q1016 NOSIG
05:55
I
15 °C 4,4 km - 050° 050° 6 kt METAR EHGG 250355Z AUTO 05006KT 020V080 4400 BR FEW006 SCT027 15/14 Q1016
05:25
I
15 °C 3,5 km 700 ft 040° 040° 4 kt METAR EHGG 250325Z AUTO 04004KT 010V070 3500 -DZ FEW003/// SCT004/// BKN007/// 15/14 Q1016 REDZ
04:55
I
15 °C 4,4 km 1.900 ft 030° 030° 4 kt METAR EHGG 250255Z AUTO 03004KT 4400 DZ FEW003 SCT011 BKN019 15/14 Q1016
04:25
M
14 °C 7 km - 050° 050° 4 kt METAR EHGG 250225Z AUTO 05004KT 7000 -DZ SCT019 14/14 Q1017 REDZ
03:55
V
14 °C 10 km+ - 050° 050° 5 kt METAR EHGG 250155Z AUTO 05005KT 9999 -RA FEW015CB 14/14 Q1017 REDZRA
03:25
M
14 °C 6 km 2.500 ft 050° 050° 5 kt METAR EHGG 250125Z AUTO 05005KT 6000 DZ FEW015CB BKN025 BKN031 14/14 Q1017
02:55
M
15 °C 6 km - 040° 040° 4 kt METAR EHGG 250055Z AUTO 04004KT 6000 -SHRA FEW015CB 15/14 Q1017
02:25
V
15 °C 8 km - 050° 050° 4 kt METAR EHGG 250025Z AUTO 05004KT 8000 -RA FEW015CB 15/14 Q1017
01:55
V
15 °C 9 km - 060° 060° 3 kt METAR EHGG 242355Z AUTO 06003KT 030V090 9000 -RA FEW015CB 15/14 Q1017 REDZRA
01:25
V
15 °C 9 km - 070° 070° 5 kt METAR EHGG 242325Z AUTO 07005KT 040V100 9000 DZRA NSC 15/14 Q1018
00:55
V
15 °C 8 km - 080° 080° 4 kt METAR EHGG 242255Z AUTO 08004KT 050V120 8000 -RA FEW015CB SCT037 15/14 Q1018 REDZRA
00:25
V
15 °C 10 km+ - Var Var 2 kt METAR EHGG 242225Z AUTO VRB02KT 9999 NSC 15/14 Q1018

24 mei 2024

Tijd Code Weer Temp. Zicht Plafond Wind METAR/SPECI
23:55
V
16 °C 10 km+ - Var Var 2 kt METAR EHGG 242155Z AUTO VRB02KT 9999 NSC 16/14 Q1018
23:25
V
16 °C 10 km+ - 050° 050° 6 kt METAR EHGG 242125Z AUTO 05006KT 9999 NSC 16/14 Q1018
22:55
V
16 °C 10 km+ - 050° 050° 5 kt METAR EHGG 242055Z AUTO 05005KT 9999 -RA NSC 16/13 Q1017 REDZRA
22:25
V
16 °C 10 km+ - 040° 040° 5 kt METAR EHGG 242025Z AUTO 04005KT 010V070 9999 -RA FEW015CB 16/13 Q1018 TEMPO 6000 SHRA FEW040CB
21:55
V
17 °C 10 km+ 4.300 ft 070° 070° 7 kt METAR EHGG 241955Z AUTO 07007KT 020V120 9999 FEW016CB SCT033 BKN043 17/12 Q1018 TEMPO 6000 SHRA FEW040CB
21:25
V
17 °C 10 km+ - 030° 030° 10 kt METAR EHGG 241925Z AUTO 03010KT 360V070 9999 FEW049 17/12 Q1018 TEMPO 6000 SHRA FEW040CB
20:55
V
17 °C 10 km+ - 030° 030° 11 kt METAR EHGG 241855Z AUTO 03011KT 350V060 9999 NSC 17/13 Q1018 TEMPO 6000 SHRA FEW040CB
20:25
V
17 °C 10 km+ - 020° 020° 10 kt METAR EHGG 241825Z AUTO 02010KT 340V060 9999 NSC 17/13 Q1017 TEMPO 6000 SHRA FEW040CB
19:55
V
18 °C 10 km+ - 030° 030° 11 kt METAR EHGG 241755Z AUTO 03011KT 360V060 9999 NSC 18/13 Q1018 TEMPO 6000 SHRA FEW040CB
19:25
V
19 °C 10 km+ - 020° 020° 10 kt METAR EHGG 241725Z AUTO 02010KT 340V060 9999 NSC 19/14 Q1017 TEMPO 6000 SHRA FEW040CB
18:55
V
19 °C 10 km+ - 020° 020° 9 kt METAR EHGG 241655Z AUTO 02009KT 330V070 9999 FEW021CB 19/14 Q1017 RETS TEMPO 6000 SHRA FEW040CB
18:25
V
19 °C 10 km+ 4.400 ft 020° 020° 9 kt METAR EHGG 241625Z AUTO 02009KT 320V050 9999 TS FEW022CB BKN044 19/14 Q1017 TEMPO 6000 SHRA FEW040CB
17:55
V
20 °C 10 km+ 4.200 ft 350° 350° 6 kt METAR EHGG 241555Z AUTO 35006KT 270V050 9999 FEW021CB BKN042 BKN047 20/15 Q1018 TEMPO 6000 TSRA FEW040CB
17:25
V
21 °C 10 km+ - 360° 360° 6 kt METAR EHGG 241525Z AUTO 36006KT 320V050 9999 SCT045/// 21/15 Q1018 TEMPO 6000 SHRA FEW040CB
16:55
V
20 °C 10 km+ - 360° 360° 3 kt METAR EHGG 241455Z AUTO 36003KT 300V060 9999 FEW020CB 20/15 Q1018 BECMG NSC
16:25
V
19 °C 10 km+ - 020° 020° 3 kt METAR EHGG 241425Z AUTO 02003KT 310V100 9999 -RA FEW016CB 19/15 Q1018 RERADZRA TEMPO 7000 SHRA
15:55
V
20 °C 10 km+ - 330° 330° 5 kt METAR EHGG 241355Z AUTO 33005KT 290V010 9999 -RA FEW026CB SCT043 20/14 Q1018 TEMPO 7000 SHRA
15:25
V
20 °C 10 km+ 4.200 ft 060° 060° 6 kt METAR EHGG 241325Z AUTO 06006KT 030V110 9999 -RA FEW029CB OVC042 20/13 Q1018 TEMPO 7000 SHRA
14:55
V
21 °C 10 km+ - 070° 070° 5 kt METAR EHGG 241255Z AUTO 07005KT 030V110 9999 NSC 21/12 Q1018 TEMPO 7000 SHRA FEW030CB
14:25
V
21 °C 10 km+ 4.200 ft 070° 070° 5 kt METAR EHGG 241225Z AUTO 07005KT 030V110 9999 BKN042 21/12 Q1018 NOSIG
13:55
V
22 °C 10 km+ - Var Var 5 kt METAR EHGG 241155Z AUTO VRB05KT 9999 NSC 22/12 Q1018 NOSIG
13:25
V
22 °C 10 km+ - Var Var 5 kt METAR EHGG 241125Z AUTO VRB05KT 9999 FEW040 22/11 Q1018 NOSIG
12:55
V
22 °C 10 km+ 4.400 ft 090° 090° 5 kt METAR EHGG 241055Z AUTO 09005KT 010V150 9999 SCT038/// BKN044/// 22/13 Q1019 NOSIG
12:25
V
22 °C 10 km+ - 120° 120° 4 kt METAR EHGG 241025Z AUTO 12004KT 050V180 9999 FEW038 22/13 Q1019 NOSIG
11:55
V
21 °C 10 km+ - 090° 090° 5 kt METAR EHGG 240955Z AUTO 09005KT 050V150 9999 FEW035 21/13 Q1019 NOSIG
11:25
V
20 °C 10 km+ - 090° 090° 5 kt METAR EHGG 240925Z AUTO 09005KT 020V140 9999 NSC 20/13 Q1019 NOSIG
10:55
V
20 °C 10 km+ - 080° 080° 6 kt METAR EHGG 240855Z AUTO 08006KT 040V140 9999 NSC 20/13 Q1019 NOSIG
10:25
V
20 °C 10 km+ - 060° 060° 8 kt METAR EHGG 240825Z AUTO 06008KT 020V130 9999 NSC 20/13 Q1019 NOSIG
09:55
V
19 °C 10 km+ - 080° 080° 7 kt METAR EHGG 240755Z AUTO 08007KT 050V120 9999 NSC 19/14 Q1019 NOSIG
09:25
V
17 °C 10 km+ - 090° 090° 5 kt METAR EHGG 240725Z AUTO 09005KT 040V120 9999 NSC 17/13 Q1019 NOSIG
08:55
V
16 °C 9 km - 070° 070° 4 kt METAR EHGG 240655Z AUTO 07004KT 020V100 9000 NSC 16/14 Q1019 NOSIG
08:25
V
16 °C 8 km - 090° 090° 3 kt METAR EHGG 240625Z AUTO 09003KT 050V120 8000 NSC 16/13 Q1019 NOSIG
07:55
M
15 °C 6 km - 110° 110° 4 kt METAR EHGG 240555Z AUTO 11004KT 070V150 6000 NSC 15/13 Q1018 BECMG CAVOK
07:25
I
14 °C 4,1 km - 100° 100° 3 kt METAR EHGG 240525Z AUTO 10003KT 070V130 4100 BR NSC 14/13 Q1018 BECMG CAVOK
06:55
I
13 °C 3 km - 110° 110° 5 kt METAR EHGG 240455Z AUTO 11005KT 080V140 3000 BR NSC 13/12 Q1018 NOSIG
06:25
I
11 °C 2,5 km - 110° 110° 4 kt METAR EHGG 240425Z AUTO 11004KT 020V150 2500 BR NSC 11/10 Q1018 NOSIG
05:55
L
9 °C 400 m - 100° 100° 3 kt METAR EHGG 240355Z AUTO 10003KT 0400 R23/0450D FG SCT000 09/09 Q1018
05:25
L
10 °C 400 m - 080° 080° 2 kt METAR EHGG 240325Z AUTO 08002KT 0400 R23/0700U FG NSC 10/10 Q1018
04:55
L
8 °C 350 m - 110° 110° 2 kt METAR EHGG 240255Z AUTO 11002KT 0350 R23/0500N FG NCD 08/08 Q1018
04:25
L
8 °C 1 km - 100° 100° 1 kt METAR EHGG 240225Z AUTO 10001KT 1000 R23/1000U FG NCD 08/08 Q1018
03:55
I
9 °C 3,7 km - 360° 360° 0 kt METAR EHGG 240155Z AUTO 00000KT 3700 BR NCD 09/08 Q1018
03:25
L
8 °C 450 m - 360° 360° 0 kt METAR EHGG 240125Z AUTO 00000KT 0450 R23/1500N FG NCD 08/08 Q1017
02:55
L
9 °C 500 m - 070° 070° 2 kt METAR EHGG 240055Z AUTO 07002KT 0500 R23/0600N BR NSC 09/08 Q1017
02:25
L
9 °C 300 m - 360° 360° 0 kt METAR EHGG 240025Z AUTO 00000KT 0300 R23/0250D FG NCD 09/09 Q1017
01:55
I
9 °C 3,7 km - 090° 090° 1 kt METAR EHGG 232355Z AUTO 09001KT 3700 BR NCD 09/09 Q1017
01:25
L
10 °C 800 m - 360° 360° 0 kt METAR EHGG 232325Z AUTO 00000KT 0800 R23/1000N FG NCD 10/09 Q1017
00:55
I
11 °C 4,5 km - Var Var 2 kt METAR EHGG 232255Z AUTO VRB02KT 4500 BR NCD 11/11 Q1017
00:25
V
11 °C 10 km+ - 090° 090° 1 kt METAR EHGG 232225Z AUTO 09001KT 9999 NCD 11/11 Q1017

23 mei 2024

Tijd Code Weer Temp. Zicht Plafond Wind METAR/SPECI
23:55
V
12 °C 10 km+ - 090° 090° 1 kt METAR EHGG 232155Z AUTO 09001KT 9999 NSC 12/11 Q1017
23:25
V
12 °C 10 km+ - 090° 090° 1 kt METAR EHGG 232125Z AUTO 09001KT 9999 NSC 12/11 Q1017
22:55
V
12 °C 10 km+ - 070° 070° 2 kt METAR EHGG 232055Z AUTO 07002KT 9999 NSC 12/11 Q1016
22:25
V
13 °C 10 km+ - 250° 250° 1 kt METAR EHGG 232025Z AUTO 25001KT 9999 NSC 13/11 Q1016 NOSIG
21:55
V
14 °C 10 km+ - Var Var 2 kt METAR EHGG 231955Z AUTO VRB02KT 9999 NSC 14/11 Q1016 NOSIG
21:25
V
15 °C 10 km+ - 260° 260° 4 kt METAR EHGG 231925Z AUTO 26004KT 9999 NSC 15/11 Q1015 NOSIG
20:55
V
17 °C 10 km+ - 250° 250° 6 kt METAR EHGG 231855Z AUTO 25006KT 220V280 9999 NCD 17/11 Q1015 NOSIG
20:25
V
18 °C 10 km+ - 260° 260° 7 kt METAR EHGG 231825Z AUTO 26007KT 230V290 9999 NCD 18/11 Q1015 NOSIG
19:55
V
19 °C 10 km+ - 260° 260° 7 kt METAR EHGG 231755Z AUTO 26007KT 220V290 9999 FEW038/// 19/12 Q1015 NOSIG
19:25
V
19 °C 10 km+ - 250° 250° 5 kt METAR EHGG 231725Z AUTO 25005KT 200V310 9999 FEW032/// 19/12 Q1014 NOSIG
18:55
V
19 °C 10 km+ - Var Var 6 kt METAR EHGG 231655Z AUTO VRB06KT 9999 NSC 19/12 Q1014 NOSIG
18:25
V
18 °C 10 km+ 4.400 ft 200° 200° 5 kt METAR EHGG 231625Z AUTO 20005KT 170V230 9999 FEW028/// BKN044/// 18/13 Q1014 NOSIG
17:55
V
18 °C 10 km+ - 210° 210° 5 kt METAR EHGG 231555Z AUTO 21005KT 190V250 9999 FEW036 18/13 Q1014 NOSIG
17:25
V
17 °C 10 km+ - 220° 220° 7 kt METAR EHGG 231525Z AUTO 22007KT 190V250 9999 FEW046/// 17/13 Q1014 NOSIG
16:55
V
18 °C 10 km+ 4.800 ft 250° 250° 6 kt METAR EHGG 231455Z AUTO 25006KT 210V270 9999 FEW024/// BKN048/// 18/13 Q1014 TEMPO 7000 SHRA SCT030CB
16:25
M
18 °C 10 km+ 2.500 ft 250° 250° 5 kt METAR EHGG 231425Z AUTO 25005KT 180V300 9999 SCT021/// BKN025/// BKN042/// 18/13 Q1014 TEMPO 7000 SHRA SCT030CB
15:55
V
18 °C 10 km+ 3.900 ft 250° 250° 7 kt METAR EHGG 231355Z AUTO 25007KT 210V280 9999 FEW029 SCT035 BKN039 18/13 Q1014 NOSIG
15:25
V
17 °C 10 km+ - 250° 250° 6 kt METAR EHGG 231325Z AUTO 25006KT 200V280 9999 FEW021/// SCT028/// 17/13 Q1014 NOSIG
14:55
V
17 °C 10 km+ 3.500 ft 230° 230° 9 kt METAR EHGG 231255Z AUTO 23009KT 190V270 9999 FEW023 BKN035 OVC040 17/12 Q1014 NOSIG
14:25
V
17 °C 10 km+ 4.200 ft 230° 230° 11 kt METAR EHGG 231225Z AUTO 23011KT 200V270 9999 FEW025 BKN042 OVC046 17/12 Q1014 NOSIG
13:55
M
17 °C 10 km+ 2.500 ft 230° 230° 11 kt METAR EHGG 231155Z AUTO 23011KT 200V260 9999 BKN025 BKN028 BKN034 17/12 Q1013 NOSIG
13:25
M
17 °C 10 km+ 2.100 ft 220° 220° 10 kt METAR EHGG 231125Z AUTO 22010KT 180V250 9999 BKN021 OVC027 17/12 Q1013 NOSIG
12:55
V
17 °C 10 km+ 3.900 ft 210° 210° 11 kt METAR EHGG 231055Z AUTO 21011KT 180V240 9999 FEW019 SCT024 OVC039 17/12 Q1013 NOSIG
12:25
M
17 °C 10 km+ 2.000 ft 210° 210° 12 kt METAR EHGG 231025Z AUTO 21012KT 180V240 9999 BKN020/// BKN024/// BKN027/// 17/12 Q1013 NOSIG
11:55
V
17 °C 10 km+ 4.500 ft 230° 230° 11 kt METAR EHGG 230955Z AUTO 23011KT 9999 FEW040 OVC045 17/12 Q1013 NOSIG
11:25
M
16 °C 10 km+ 1.800 ft 210° 210° 11 kt METAR EHGG 230925Z AUTO 21011KT 170V240 9999 BKN018 BKN023 OVC029 16/12 Q1013 NOSIG
10:55
M
16 °C 10 km+ 1.700 ft 210° 210° 9 kt METAR EHGG 230855Z AUTO 21009KT 170V250 9999 BKN017 BKN021 OVC025 16/12 Q1013 NOSIG
10:25
M
16 °C 10 km+ 2.000 ft 210° 210° 10 kt METAR EHGG 230825Z AUTO 21010KT 180V240 9999 SCT017 BKN020 OVC024 16/12 Q1012 NOSIG
09:55
M
16 °C 10 km+ 1.600 ft 200° 200° 9 kt METAR EHGG 230755Z AUTO 20009KT 160V240 9999 BKN016 OVC019 16/12 Q1012 NOSIG
09:25
V
15 °C 10 km+ 3.700 ft 200° 200° 9 kt METAR EHGG 230725Z AUTO 20009KT 160V230 9999 FEW015/// OVC037/// 15/12 Q1012 NOSIG
08:55
V
15 °C 10 km+ - 200° 200° 8 kt METAR EHGG 230655Z AUTO 20008KT 160V240 9999 SCT035/// 15/12 Q1012 NOSIG
08:25
V
14 °C 10 km+ 3.100 ft 200° 200° 9 kt METAR EHGG 230625Z AUTO 20009KT 9999 OVC031/// 14/12 Q1012 NOSIG
07:55
M
14 °C 10 km+ 2.800 ft 200° 200° 8 kt METAR EHGG 230555Z AUTO 20008KT 170V250 9999 SCT025/// OVC028/// 14/11 Q1012 NOSIG
Wijziging doorgeven